createdAt,value
2023-03-29T17:44:09.283Z,11.05
2023-03-29T17:45:09.276Z,10.99
2023-03-29T17:46:09.246Z,10.98
2023-03-29T17:47:09.393Z,10.87
2023-03-29T17:48:09.258Z,11.01
2023-03-29T17:49:09.175Z,11.02
2023-03-29T17:50:10.317Z,10.94
2023-03-29T17:51:10.294Z,11.05
2023-03-29T17:52:10.279Z,10.98
2023-03-29T17:53:10.293Z,10.98
2023-03-29T17:54:10.239Z,10.94
2023-03-29T17:55:10.229Z,11.02
2023-03-29T17:56:10.217Z,10.93
2023-03-29T17:57:10.227Z,11.02
2023-03-29T17:58:10.203Z,11.03
2023-03-29T17:59:10.268Z,11.03
2023-03-29T18:00:10.135Z,10.98
2023-03-29T18:01:10.180Z,11.03
2023-03-29T18:02:10.156Z,11.01
2023-03-29T18:03:10.150Z,10.95
2023-03-29T18:04:10.087Z,11.01
2023-03-29T18:05:10.056Z,10.91
2023-03-29T18:06:10.051Z,10.95
2023-03-29T18:07:10.029Z,10.95
2023-03-29T18:08:10.064Z,10.99
2023-03-29T18:09:09.989Z,11.01
2023-03-29T18:10:09.987Z,11.01
2023-03-29T18:11:09.970Z,11.01
2023-03-29T18:12:09.964Z,11.01
2023-03-29T18:13:09.953Z,10.98
2023-03-29T18:14:09.912Z,11.01
2023-03-29T18:15:09.907Z,11.09
2023-03-29T18:16:10.001Z,11.11
2023-03-29T18:17:09.928Z,11.21
2023-03-29T18:18:09.897Z,11.16
2023-03-29T18:19:09.822Z,11.11
2023-03-29T18:20:09.806Z,11.06
2023-03-29T18:21:09.783Z,10.99
2023-03-29T18:22:09.772Z,11.09
2023-03-29T18:23:09.796Z,11.12
2023-03-29T18:24:09.730Z,11.20
2023-03-29T18:25:09.763Z,11.08
2023-03-29T18:26:09.728Z,11.12
2023-03-29T18:27:09.679Z,11.12
2023-03-29T18:28:09.683Z,11.05
2023-03-29T18:29:09.968Z,11.08
2023-03-29T18:30:10.883Z,11.12
2023-03-29T18:31:09.655Z,11.08
2023-03-29T18:32:09.621Z,11.01
2023-03-29T18:33:09.652Z,11.06
2023-03-29T18:34:09.556Z,11.06
2023-03-29T18:35:09.545Z,11.13
2023-03-29T18:36:12.214Z,11.16
2023-03-29T18:37:10.531Z,11.19
2023-03-29T18:38:09.529Z,11.20
2023-03-29T18:39:09.485Z,11.19
2023-03-29T18:40:09.473Z,11.11
2023-03-29T18:41:09.449Z,11.09
2023-03-29T18:42:11.657Z,11.13
2023-03-29T18:43:09.449Z,11.21
2023-03-29T18:44:09.393Z,11.16
2023-03-29T18:45:09.364Z,11.19
2023-03-29T18:46:09.377Z,11.17
2023-03-29T18:47:09.472Z,11.26
2023-03-29T18:48:09.426Z,11.21
2023-03-29T18:49:09.325Z,11.28
2023-03-29T18:50:09.291Z,11.21
2023-03-29T18:51:09.359Z,11.17
2023-03-29T18:52:09.253Z,11.12
2023-03-29T18:53:09.284Z,11.27
2023-03-29T18:54:09.228Z,11.23
2023-03-29T18:55:09.230Z,11.13
2023-03-29T18:56:09.198Z,11.26
2023-03-29T18:57:09.285Z,11.21
2023-03-29T18:58:09.230Z,11.20
2023-03-29T18:59:09.161Z,11.26
2023-03-29T19:00:09.181Z,11.27
2023-03-29T19:01:09.120Z,11.20
2023-03-29T19:02:09.170Z,11.20
2023-03-29T19:03:09.223Z,11.19
2023-03-29T19:04:09.119Z,11.19
2023-03-29T19:05:09.067Z,11.21
2023-03-29T19:06:09.036Z,11.16
2023-03-29T19:07:09.031Z,11.20
2023-03-29T19:08:09.056Z,11.17
2023-03-29T19:09:09.005Z,11.16
2023-03-29T19:10:08.968Z,11.13
2023-03-29T19:11:08.930Z,11.16
2023-03-29T19:12:08.929Z,11.13
2023-03-29T19:13:08.897Z,11.13
2023-03-29T19:14:08.949Z,11.08
2023-03-29T19:15:08.976Z,11.13
2023-03-29T19:16:09.126Z,11.17
2023-03-29T19:17:08.831Z,11.17
2023-03-29T19:18:08.903Z,11.20
2023-03-29T19:19:08.840Z,11.24
2023-03-29T19:20:08.778Z,11.19
2023-03-29T19:21:08.756Z,11.17
2023-03-29T19:22:08.744Z,11.11
2023-03-29T19:23:08.743Z,11.11
2023-03-29T19:24:08.763Z,11.02
2023-03-29T19:25:08.712Z,11.23
2023-03-29T19:26:08.680Z,11.16
2023-03-29T19:27:10.708Z,11.20
2023-03-29T19:28:08.656Z,11.17
2023-03-29T19:29:08.656Z,11.16
2023-03-29T19:30:08.597Z,11.19
2023-03-29T19:31:09.654Z,11.19
2023-03-29T19:32:08.598Z,11.24
2023-03-29T19:33:08.635Z,11.24
2023-03-29T19:34:08.570Z,11.41
2023-03-29T19:35:08.532Z,11.23
2023-03-29T19:36:08.536Z,11.26
2023-03-29T19:37:08.494Z,11.38
2023-03-29T19:38:08.487Z,11.30
2023-03-29T19:39:08.489Z,11.26
2023-03-29T19:40:08.452Z,11.23
2023-03-29T19:41:08.416Z,11.16
2023-03-29T19:42:08.398Z,11.24
2023-03-29T19:43:08.383Z,11.23
2023-03-29T19:44:08.378Z,11.21
2023-03-29T19:45:09.349Z,11.20
2023-03-29T19:46:08.455Z,11.19
2023-03-29T19:47:08.345Z,11.23
2023-03-29T19:48:12.321Z,11.19
2023-03-29T19:49:09.373Z,11.13
2023-03-29T19:50:08.265Z,11.24
2023-03-29T19:51:08.249Z,11.31
2023-03-29T19:52:08.264Z,11.26
2023-03-29T19:53:08.216Z,11.26
2023-03-29T19:54:08.230Z,11.27
2023-03-29T19:55:08.178Z,11.31
2023-03-29T19:56:08.155Z,11.27
2023-03-29T19:57:08.158Z,11.31
2023-03-29T19:58:08.146Z,11.39
2023-03-29T19:59:08.172Z,11.33
2023-03-29T20:00:08.167Z,11.30
2023-03-29T20:01:08.073Z,11.26
2023-03-29T20:02:08.139Z,11.35
2023-03-29T20:03:08.078Z,11.36
2023-03-29T20:04:08.073Z,11.26
2023-03-29T20:05:08.026Z,11.35
2023-03-29T20:06:07.995Z,11.35
2023-03-29T20:07:07.972Z,11.39
2023-03-29T20:08:07.958Z,11.33
2023-03-29T20:09:07.982Z,11.36
2023-03-29T20:10:07.926Z,11.30
2023-03-29T20:11:07.907Z,11.35
2023-03-29T20:12:07.895Z,11.31
2023-03-29T20:13:07.881Z,11.35
2023-03-29T20:14:07.878Z,11.30
2023-03-29T20:15:07.852Z,11.38
2023-03-29T20:16:07.908Z,11.36
2023-03-29T20:17:07.797Z,11.36
2023-03-29T20:18:07.811Z,11.39
2023-03-29T20:19:07.808Z,11.38
2023-03-29T20:20:07.755Z,11.30
2023-03-29T20:21:07.749Z,11.41
2023-03-29T20:22:07.711Z,11.42
2023-03-29T20:23:07.715Z,11.46
2023-03-29T20:24:07.743Z,11.44
2023-03-29T20:25:07.685Z,11.35
2023-03-29T20:26:07.649Z,11.33
2023-03-29T20:27:07.641Z,11.35
2023-03-29T20:28:07.629Z,11.44
2023-03-29T20:29:07.677Z,11.48
2023-03-29T20:30:07.593Z,11.39
2023-03-29T20:31:07.564Z,11.44
2023-03-29T20:32:07.651Z,11.41
2023-03-29T20:33:07.581Z,11.45
2023-03-29T20:34:07.545Z,11.48
2023-03-29T20:35:07.493Z,11.45
2023-03-29T20:36:07.616Z,11.54
2023-03-29T20:37:07.506Z,11.44
2023-03-29T20:38:07.450Z,11.48
2023-03-29T20:39:07.464Z,11.49
2023-03-29T20:40:07.417Z,11.51
2023-03-29T20:41:07.388Z,11.59
2023-03-29T20:42:07.373Z,11.57
2023-03-29T20:43:08.382Z,11.56
2023-03-29T20:44:07.393Z,11.51
2023-03-29T20:45:07.321Z,11.69
2023-03-29T20:46:07.334Z,11.59
2023-03-29T20:47:07.294Z,11.66
2023-03-29T20:48:07.314Z,11.60
2023-03-29T20:49:07.364Z,11.66
2023-03-29T20:50:07.273Z,11.63
2023-03-29T20:51:07.236Z,11.67
2023-03-29T20:52:07.203Z,11.66
2023-03-29T20:53:07.197Z,11.74
2023-03-29T20:54:07.297Z,11.66
2023-03-29T20:55:07.160Z,11.64
2023-03-29T20:56:07.136Z,11.69
2023-03-29T20:57:07.156Z,11.66
2023-03-29T20:58:07.111Z,11.75
2023-03-29T20:59:07.132Z,11.75
2023-03-29T21:00:07.069Z,11.69
2023-03-29T21:01:07.237Z,11.75
2023-03-29T21:02:07.094Z,11.78
2023-03-29T21:03:07.094Z,11.66
2023-03-29T21:04:07.030Z,11.77
2023-03-29T21:05:06.990Z,11.66
2023-03-29T21:06:06.983Z,11.74
2023-03-29T21:07:07.025Z,11.77
2023-03-29T21:08:06.949Z,11.64
2023-03-29T21:09:06.976Z,11.70
2023-03-29T21:10:06.919Z,11.70
2023-03-29T21:11:06.881Z,11.69
2023-03-29T21:12:06.874Z,11.75
2023-03-29T21:13:06.852Z,11.75
2023-03-29T21:14:06.864Z,11.88
2023-03-29T21:15:06.809Z,11.79
2023-03-29T21:16:06.854Z,11.77
2023-03-29T21:17:06.812Z,11.84
2023-03-29T21:18:06.851Z,11.87
2023-03-29T21:19:06.778Z,11.78
2023-03-29T21:20:06.742Z,11.75
2023-03-29T21:21:06.726Z,11.82
2023-03-29T21:22:06.738Z,11.85
2023-03-29T21:23:39.056Z,11.85
2023-03-29T21:24:06.717Z,11.88
2023-03-29T21:25:06.677Z,11.94
2023-03-29T21:26:06.651Z,11.90
2023-03-29T21:27:06.616Z,11.87
2023-03-29T21:28:06.624Z,11.88
2023-03-29T21:29:06.632Z,11.93
2023-03-29T21:30:06.580Z,11.88
2023-03-29T21:31:06.816Z,11.88
2023-03-29T21:32:06.609Z,11.88
2023-03-29T21:33:06.586Z,11.87
2023-03-29T21:34:06.564Z,11.96
2023-03-29T21:35:07.490Z,11.96
2023-03-29T21:36:06.545Z,11.90
2023-03-29T21:37:06.478Z,11.88
2023-03-29T21:38:06.444Z,11.90
2023-03-29T21:39:06.459Z,12.00
2023-03-29T21:40:06.397Z,11.93
2023-03-29T21:41:06.610Z,11.88
2023-03-29T21:42:06.444Z,11.98
2023-03-29T21:43:06.379Z,11.94
2023-03-29T21:44:06.399Z,12.03
2023-03-29T21:45:06.324Z,11.93
2023-03-29T21:46:06.360Z,11.97
2023-03-29T21:47:06.358Z,11.98
2023-03-29T21:48:06.317Z,11.98
2023-03-29T21:49:06.316Z,11.93
2023-03-29T21:50:06.229Z,11.90
2023-03-29T21:51:06.483Z,11.98
2023-03-29T21:52:06.202Z,11.93
2023-03-29T21:53:06.182Z,11.97
2023-03-29T21:54:06.170Z,12.00
2023-03-29T21:55:07.178Z,11.90
2023-03-29T21:56:06.168Z,11.96
2023-03-29T21:57:06.157Z,11.97
2023-03-29T21:58:06.136Z,11.90
2023-03-29T21:59:06.086Z,11.96
2023-03-29T22:00:06.157Z,11.85
2023-03-29T22:01:06.286Z,11.88
2023-03-29T22:02:06.100Z,11.94
2023-03-29T22:03:06.037Z,11.85
2023-03-29T22:04:06.001Z,11.87
2023-03-29T22:05:06.008Z,11.82
2023-03-29T22:06:05.966Z,11.94
2023-03-29T22:07:05.965Z,11.87
2023-03-29T22:08:05.940Z,11.88
2023-03-29T22:09:05.923Z,11.75
2023-03-29T22:10:05.930Z,11.85
2023-03-29T22:11:07.537Z,11.88
2023-03-29T22:12:05.862Z,11.93
2023-03-29T22:13:05.900Z,11.87
2023-03-29T22:14:05.828Z,11.79
2023-03-29T22:15:05.872Z,11.77
2023-03-29T22:16:05.918Z,11.85
2023-03-29T22:17:05.833Z,11.79
2023-03-29T22:18:05.833Z,11.84
2023-03-29T22:19:05.759Z,11.74
2023-03-29T22:20:05.770Z,11.81
2023-03-29T22:21:05.829Z,11.81
2023-03-29T22:22:05.713Z,11.87
2023-03-29T22:23:05.715Z,11.79
2023-03-29T22:24:05.689Z,11.78
2023-03-29T22:25:05.733Z,11.82
2023-03-29T22:26:05.659Z,11.67
2023-03-29T22:27:05.622Z,11.72
2023-03-29T22:28:05.645Z,11.77
2023-03-29T22:29:05.703Z,11.70
2023-03-29T22:30:05.655Z,11.74
2023-03-29T22:31:05.693Z,11.84
2023-03-29T22:32:05.556Z,11.70
2023-03-29T22:33:05.560Z,11.74
2023-03-29T22:34:05.496Z,11.77
2023-03-29T22:35:05.528Z,11.75
2023-03-29T22:36:05.466Z,11.74
2023-03-29T22:37:05.456Z,11.70
2023-03-29T22:38:05.429Z,11.82
2023-03-29T22:39:05.421Z,11.64
2023-03-29T22:40:05.427Z,11.64
2023-03-29T22:41:05.669Z,11.67
2023-03-29T22:42:05.355Z,11.67
2023-03-29T22:43:05.540Z,11.60
2023-03-29T22:44:06.328Z,11.67
2023-03-29T22:45:05.356Z,11.66
2023-03-29T22:46:05.353Z,11.67
2023-03-29T22:47:05.272Z,11.69
2023-03-29T22:48:05.299Z,11.67
2023-03-29T22:49:05.279Z,11.64
2023-03-29T22:50:05.260Z,11.62
2023-03-29T22:51:05.525Z,11.66
2023-03-29T22:52:05.193Z,11.64
2023-03-29T22:53:05.188Z,11.72
2023-03-29T22:54:05.257Z,11.75
2023-03-29T22:55:05.193Z,11.67
2023-03-29T22:56:05.142Z,11.74
2023-03-29T22:57:05.157Z,11.74
2023-03-29T22:58:05.141Z,11.81
2023-03-29T22:59:05.080Z,11.70
2023-03-29T23:00:05.108Z,11.78
2023-03-29T23:01:05.391Z,11.78
2023-03-29T23:02:05.164Z,11.77
2023-03-29T23:03:05.083Z,11.81
2023-03-29T23:04:05.014Z,11.79
2023-03-29T23:05:05.032Z,11.79
2023-03-29T23:06:04.958Z,11.85
2023-03-29T23:07:04.982Z,11.75
2023-03-29T23:08:05.059Z,11.82
2023-03-29T23:09:04.931Z,11.82
2023-03-29T23:10:04.931Z,11.85
2023-03-29T23:11:05.051Z,11.84
2023-03-29T23:12:04.873Z,11.82
2023-03-29T23:13:04.855Z,11.93
2023-03-29T23:14:04.845Z,11.87
2023-03-29T23:15:04.837Z,11.78
2023-03-29T23:16:04.861Z,11.82
2023-03-29T23:17:04.815Z,11.87
2023-03-29T23:18:04.826Z,11.94
2023-03-29T23:19:04.796Z,11.84
2023-03-29T23:20:04.881Z,11.96
2023-03-29T23:21:05.035Z,11.87
2023-03-29T23:22:04.728Z,11.85
2023-03-29T23:23:04.664Z,11.84
2023-03-29T23:24:04.662Z,11.81
2023-03-29T23:25:04.680Z,11.81
2023-03-29T23:26:04.640Z,11.81
2023-03-29T23:27:04.618Z,11.78
2023-03-29T23:28:04.623Z,11.84
2023-03-29T23:29:04.586Z,11.75
2023-03-29T23:30:04.616Z,11.70
2023-03-29T23:31:04.782Z,11.82
2023-03-29T23:32:04.525Z,11.74
2023-03-29T23:33:05.601Z,11.84
2023-03-29T23:34:05.499Z,11.70
2023-03-29T23:35:04.514Z,11.74
2023-03-29T23:36:04.597Z,11.66
2023-03-29T23:37:04.439Z,11.66
2023-03-29T23:38:04.438Z,11.69
2023-03-29T23:39:04.409Z,11.69
2023-03-29T23:40:04.422Z,11.46
2023-03-29T23:41:04.536Z,11.70
2023-03-29T23:42:04.371Z,11.56
2023-03-29T23:43:04.334Z,11.49
2023-03-29T23:44:04.332Z,11.48
2023-03-29T23:45:04.337Z,11.57
2023-03-29T23:46:04.306Z,11.57
2023-03-29T23:47:04.412Z,11.49
2023-03-29T23:48:04.265Z,11.53
2023-03-29T23:49:04.230Z,11.45
2023-03-29T23:50:05.244Z,11.57
2023-03-29T23:51:04.345Z,11.64
2023-03-29T23:52:04.191Z,11.59
2023-03-29T23:53:04.153Z,11.49
2023-03-29T23:54:05.278Z,11.62
2023-03-29T23:55:04.173Z,11.62
2023-03-29T23:56:04.133Z,11.60
2023-03-29T23:57:04.137Z,11.63
2023-03-29T23:58:04.091Z,11.62
2023-03-29T23:59:04.067Z,11.59
